Relevés horaires Crap Masegn (Suisse)


Relevés horaires à Crap Masegn - Samedi 04 Nov. 2017
Heure UTC1 Température [°C] Vent [km/h] Hum. [%] Pres.4 [hPa] Visi. [Km] Nébu. [octa] Préc.5 [mm] Cond.
2m. Res. Ros. Dir.2 Vit. Moy. Raf.3
23:00 -0.4 -4.9 -1.9 SO 14.8 -- 38.9 90 700(-0.7/3h) -- -- -- --
22:00 -0.4 -7 -2.0 OSO 29.6 -- 53.7 89 700(-0.9/3h) -- -- -- --
21:00 -0.5 -7.5 -2.2 SO 33.3 -- 46.3 88 700(-0.8/3h) -- -- -- --
20:00 -0.8 -8 -1.9 SO 35.2 -- 44.4 92 700(-0.7/3h) -- -- -- --
19:00 -1.0 -7.1 -2.2 SO 24.1 -- 38.9 92 700(-0.1/3h) -- -- -- --
18:00 -1.3 -7.7 -2.7 OSO 25.9 -- 37.0 90 700(-0.1/3h) -- -- -- --
17:00 -1.5 -5.4 -3.5 O 11.1 -- 25.9 86 700(0.0/3h) -- -- -- --
16:00 -1.2 -5 -3.6 SO 11.1 -- 22.2 84 700(-0.2/3h) -- -- -- --
15:00 -0.4 -5.8 -3.5 SSO 20.4 -- 37.0 80 700(-0.1/3h) -- -- -- --
14:00 0.1 -5.4 -3.6 SO 22.2 -- 35.2 76 700(-0.2/3h) -- -- -- --
13:00 0.4 -5 -3.9 SO 22.2 -- 37.0 73 700(-0.3/3h) -- -- -- --
12:00 0.2 -5.5 -4.0 SO 24.1 -- 38.9 73 700(-0.2/3h) -- -- -- --
11:00 0.3 -5.6 -4.0 OSO 25.9 -- 37.0 73 700(-0.1/3h) -- -- -- --
10:00 0.0 -6.2 -5.3 SO 27.8 -- 37.0 67 700(0.0/3h) -- -- -- --
09:00 -0.6 -6.3 -6.4 OSO 22.2 -- 38.9 65 700(0.3/3h) -- -- -- --
08:00 -0.3 -5.9 -8.0 OSO 22.2 -- 38.9 56 700(0.2/3h) -- -- -- --
07:00 -0.5 -5 -8.3 OSO 14.8 -- 35.2 55 700(0.0/3h) -- -- -- --
06:00 -0.5 -5.6 -8.6 OSO 18.5 -- 37.0 54 700(-0.6/3h) -- -- -- --
05:00 -0.5 -6.4 -8.7 OSO 24.1 -- 31.5 54 700(-0.8/3h) -- -- -- --
04:00 -0.2 -5.3 -8.4 OSO 18.5 -- 27.8 54 700(-0.8/3h) -- -- -- --
03:00 0.5 -4.9 -8.6 OSO 22.2 -- 35.2 50 700(-0.6/3h) -- -- -- --
02:00 0.3 -4.9 -8.1 OSO 20.4 -- 29.6 53 700(-0.3/3h) -- -- -- --
01:00 0.4 -4.8 -8.2 O 20.4 -- 35.2 52 700(-0.1/3h) -- -- -- --
00:00 -0.2 -6.7 -6.7 O 29.6 -- 55.6 61 700(-0.2/3h) -- -- -- --

1 Coordinated Universal Time. Actuellement il est 22:00 locale et 20:00 UTC.

2 Le vent souffle depuis la direction indiquée vers la direction oposée.

3 Les rafales max. sont disponible 40 min après l'heure du relevé.

4 Pour les stations d'altitude (plus de 600m) le géopotentiel du niveau le plus proche de la pression obligatoire est indiqué.

5 Les stations disposant d'un diffuseur peuvent indiquer "trace". Cela signifie que des précipitations ont touchés le sol mais que la quantité est inférieure à 0.1 mm.

Copyright

Les données affichées sur cette page sont la propriété exclusive de Météo Suisse.

Récapitulatif de la journée
Température [°C] Vent [km/h] Ensoleillement4 [h] Precipitations totale5 [mm] Pression [Hpa]
Min1 Max.2 Moy.3 Max. Min Max.
-0.8 0.8 0 55.6 5 h 18 min 0 700.0 700.0

1 Température minimale relevée entre 18:00 UTC la veille et 18:00 UTC le jour donné.

2 Température maximale relevée entre 06:00 UTC le jour donné et 06:00 UTC le lendemain.

3 Vent moyen de la journée basé sur les relevés horaires.

4 Ensoleillement en heures relevé entre 06:00 UTC la veille et 06:00 UTC le jour donné.

5 Précipitations totales tombées entre 06:00 UTC la jour donné et 06:00 UTC le lendemain.

Graphiques horaires